Thunder radar more information blitzortung!


Radar de pluja more information rain snow radar


Visita la nostra xarxa de llocs de meteo:

Template documentation
and downloads

And another site



No particular awareness of the weather is required.    There are no Weather-warnings

Pagina Historial Weather Underground text

Diari Resum Marc 11, 2016 Unitats:  Mètric    Imperial   Tant
« Previous Dia
SegĂźent Dia »
Diari Setmana Mensual Anual Personalitzada
  Maxima: Minima: Media:
Temperatura: 18.4 °C 2.7 °C 11.5 °C
Punt de rosada: 2.9 °C -5.5 °C -0.3 °C
Humitat: 60 % 30 % 45 %
Wind Speed: 20.4 km/h 0.0 km/h 6 km/h
RĂ fegues de vent: 20.4 km/h - -
Vent:- - ESE
Pression baro: 1021.9 hPa 1015.8 hPa -
Precipitacions: 0.0 mm    
Historical Graphs
 
 
Dades de taula per Marc 11, 2016
Temps Temperatura Punt de rosada Pression baro Vent Wind Speed RĂ fegues de vent Humitat Rainfall Rate (Hourly)
00:10 2.9 °C -5.5 °C 1015.8 hPa Calm     54 % 0.0 mm
00:30 2.9 °C -5.5 °C 1016.8 hPa WSW 1.6 km/h 3.2 km/h 54 % 0.0 mm
00:40 2.9 °C -5.3 °C 1016.8 hPa Calm     55 % 0.0 mm
00:50 3.0 °C -4.7 °C 1016.8 hPa SW 1.6 km/h 1.6 km/h 57 % 0.0 mm
01:00 2.8 °C -5.1 °C 1016.8 hPa NE 1.6 km/h 4.8 km/h 56 % 0.0 mm
01:10 2.8 °C -5.1 °C 1016.8 hPa NNE 1.6 km/h 3.2 km/h 56 % 0.0 mm
01:20 2.7 °C -5.2 °C 1016.8 hPa NNE 1.6 km/h 3.2 km/h 56 % 0.0 mm
01:30 2.9 °C -4.8 °C 1016.8 hPa NNE 1.6 km/h 3.2 km/h 57 % 0.0 mm
01:40 3.1 °C -4.8 °C 1016.8 hPa NNE 1.6 km/h 3.2 km/h 56 % 0.0 mm
01:50 3.4 °C -4.6 °C 1017.8 hPa NNE 1.6 km/h 3.2 km/h 56 % 0.0 mm
02:00 3.8 °C -4.2 °C 1017.8 hPa NNE 1.6 km/h 3.2 km/h 56 % 0.0 mm
02:10 4.3 °C -3.7 °C 1017.8 hPa NNE 3.2 km/h 3.2 km/h 56 % 0.0 mm
02:20 4.5 °C -3.6 °C 1017.8 hPa NE 1.6 km/h 6.4 km/h 56 % 0.0 mm
02:30 5.1 °C -2.9 °C 1017.8 hPa NE 1.6 km/h 3.2 km/h 56 % 0.0 mm
02:50 5.4 °C -2.9 °C 1017.8 hPa NNE 3.2 km/h 8.0 km/h 55 % 0.0 mm
03:00 5.7 °C -2.7 °C 1017.8 hPa North 4.8 km/h 4.8 km/h 55 % 0.0 mm
03:10 6.0 °C -2.4 °C 1017.8 hPa NNE 4.8 km/h 6.4 km/h 55 % 0.0 mm
03:20 6.7 °C -1.9 °C 1016.8 hPa NE 1.6 km/h 3.2 km/h 54 % 0.0 mm
03:30 7.1 °C -1.6 °C 1017.8 hPa NE 3.2 km/h 4.8 km/h 54 % 0.0 mm
03:40 7.1 °C -1.6 °C 1017.8 hPa NE 3.2 km/h 4.8 km/h 54 % 0.0 mm
03:50 8.0 °C -0.8 °C 1017.8 hPa NE 1.6 km/h 3.2 km/h 54 % 0.0 mm
04:00 7.9 °C -1.1 °C 1016.8 hPa NNE 3.2 km/h 6.4 km/h 53 % 0.0 mm
04:10 8.5 °C -0.6 °C 1016.8 hPa ENE 1.6 km/h 4.8 km/h 53 % 0.0 mm
04:20 8.9 °C -0.2 °C 1017.8 hPa ESE 3.2 km/h 4.8 km/h 53 % 0.0 mm
04:30 9.2 °C 0.1 °C 1016.8 hPa SW 1.6 km/h 4.8 km/h 53 % 0.0 mm
04:40 10.2 °C 0.8 °C 1016.8 hPa SSW 1.6 km/h 6.4 km/h 52 % 0.0 mm
04:50 10.6 °C 1.2 °C 1017.8 hPa East 3.2 km/h 4.8 km/h 52 % 0.0 mm
05:00 10.9 °C 1.2 °C 1017.8 hPa SE 1.6 km/h 3.2 km/h 51 % 0.0 mm
05:10 11.3 °C 1.5 °C 1017.8 hPa ESE 3.2 km/h 6.4 km/h 51 % 0.0 mm
05:20 11.6 °C 1.8 °C 1018.8 hPa ENE 3.2 km/h 4.8 km/h 51 % 0.0 mm
05:30 11.8 °C 2.0 °C 1017.8 hPa ESE 3.2 km/h 4.8 km/h 51 % 0.0 mm
05:40 11.8 °C 1.7 °C 1017.8 hPa ENE 4.8 km/h 8.0 km/h 50 % 0.0 mm
05:50 12.2 °C 2.1 °C 1017.8 hPa ENE 1.6 km/h 4.8 km/h 50 % 0.0 mm
06:00 12.9 °C 2.4 °C 1017.8 hPa ESE 1.6 km/h 6.4 km/h 49 % 0.0 mm
06:10 13.2 °C 2.1 °C 1017.8 hPa East 8.0 km/h 9.7 km/h 47 % 0.0 mm
12:11 13.0 °C 2.2 °C 1017.8 hPa NE 9.3 km/h 9.3 km/h 48 % 0.0 mm
12:16 13.3 °C 2.2 °C 1017.8 hPa ENE 3.7 km/h 4.2 km/h 47 % 0.0 mm
12:21 13.7 °C 2.9 °C 1017.8 hPa South 5.8 km/h 5.8 km/h 48 % 0.0 mm
12:26 13.7 °C 2.3 °C 1017.8 hPa ENE 7.4 km/h 7.4 km/h 46 % 0.0 mm
12:31 13.5 °C 2.1 °C 1017.8 hPa ENE 5.8 km/h 5.8 km/h 46 % 0.0 mm
12:36 13.7 °C 1.9 °C 1017.8 hPa ENE 4.7 km/h 4.7 km/h 45 % 0.0 mm
12:41 14.6 °C 2.8 °C 1017.8 hPa SW 7.4 km/h 7.4 km/h 45 % 0.0 mm
12:46 14.9 °C 2.4 °C 1017.8 hPa SSW 3.7 km/h 3.7 km/h 43 % 0.0 mm
12:51 15.1 °C 2.6 °C 1017.8 hPa SW 7.4 km/h 7.4 km/h 43 % 0.0 mm
13:01 15.4 °C 2.2 °C 1017.8 hPa ENE 9.0 km/h 9.0 km/h 41 % 0.0 mm
13:06 14.9 °C 0.7 °C 1017.8 hPa ENE 5.8 km/h 5.8 km/h 38 % 0.0 mm
13:12 15.3 °C 2.1 °C 1016.8 hPa SW 2.3 km/h 4.2 km/h 41 % 0.0 mm
13:17 15.9 °C 2.3 °C 1016.8 hPa ENE 3.7 km/h 3.9 km/h 40 % 0.0 mm
13:22 16.2 °C 2.9 °C 1016.8 hPa SW 3.9 km/h 3.9 km/h 41 % 0.0 mm
13:27 16.4 °C 2.8 °C 1016.8 hPa ENE 3.7 km/h 3.7 km/h 40 % 0.0 mm
13:32 16.6 °C 2.9 °C 1016.8 hPa ENE 5.3 km/h 5.3 km/h 40 % 0.0 mm
13:37 16.5 °C 2.1 °C 1016.8 hPa SW 9.7 km/h 9.7 km/h 38 % 0.0 mm
13:42 16.6 °C 1.4 °C 1016.8 hPa SW 7.4 km/h 7.4 km/h 36 % 0.0 mm
13:47 17.0 °C 1.4 °C 1016.8 hPa WSW 10.3 km/h 10.3 km/h 35 % 0.0 mm
13:52 16.7 °C 0.7 °C 1016.8 hPa SW 16.7 km/h 16.7 km/h 34 % 0.0 mm
13:57 16.5 °C -0.3 °C 1016.8 hPa SW 11.1 km/h 11.1 km/h 32 % 0.0 mm
14:02 16.7 °C -0.1 °C 1016.8 hPa SW 9.0 km/h 9.0 km/h 32 % 0.0 mm
14:07 17.1 °C 0.3 °C 1016.8 hPa East 11.1 km/h 11.1 km/h 32 % 0.0 mm
14:12 17.3 °C 0.4 °C 1015.8 hPa SW 9.3 km/h 9.3 km/h 32 % 0.0 mm
14:17 17.3 °C 0.4 °C 1015.8 hPa WSW 16.7 km/h 16.7 km/h 32 % 0.0 mm
14:22 17.3 °C 0.4 °C 1015.8 hPa West 13.0 km/h 13.0 km/h 32 % 0.0 mm
14:27 17.1 °C 0.3 °C 1015.8 hPa West 11.1 km/h 11.1 km/h 32 % 0.0 mm
14:32 17.0 °C -0.3 °C 1015.8 hPa WSW 9.3 km/h 9.3 km/h 31 % 0.0 mm
14:37 17.3 °C 0.4 °C 1015.8 hPa WSW 5.6 km/h 5.6 km/h 32 % 0.0 mm
14:42 17.5 °C 0.2 °C 1015.8 hPa SSW 9.7 km/h 9.7 km/h 31 % 0.0 mm
14:47 17.4 °C 0.5 °C 1015.8 hPa NNW 5.6 km/h 5.6 km/h 32 % 0.0 mm
14:52 17.6 °C 0.7 °C 1015.8 hPa WSW 8.7 km/h 8.7 km/h 32 % 0.0 mm
14:57 17.6 °C 0.7 °C 1015.8 hPa SSW 9.3 km/h 9.3 km/h 32 % 0.0 mm
15:02 17.9 °C 0.5 °C 1015.8 hPa SW 5.6 km/h 5.6 km/h 31 % 0.0 mm
15:07 17.8 °C 0.4 °C 1015.8 hPa West 6.1 km/h 6.1 km/h 31 % 0.0 mm
15:12 18.0 °C 0.6 °C 1015.8 hPa West 11.4 km/h 11.4 km/h 31 % 0.0 mm
15:17 17.7 °C 0.3 °C 1015.8 hPa West 7.4 km/h 7.4 km/h 31 % 0.0 mm
15:22 17.6 °C 0.3 °C 1015.8 hPa SW 9.3 km/h 9.3 km/h 31 % 0.0 mm
15:27 17.8 °C 0.4 °C 1015.8 hPa SW 4.7 km/h 4.7 km/h 31 % 0.0 mm
15:32 17.8 °C 0.4 °C 1015.8 hPa WSW 11.1 km/h 11.1 km/h 31 % 0.0 mm
15:37 17.8 °C 0.4 °C 1015.8 hPa WSW 7.4 km/h 7.4 km/h 31 % 0.0 mm
15:42 18.2 °C 0.3 °C 1015.8 hPa SW 3.9 km/h   30 % 0.0 mm
15:47 18.4 °C 0.5 °C 1015.8 hPa WSW 5.6 km/h 5.6 km/h 30 % 0.0 mm
15:52 18.2 °C 0.3 °C 1015.8 hPa WSW 6.1 km/h 6.1 km/h 30 % 0.0 mm
15:57 18.2 °C 0.3 °C 1015.8 hPa WSW 5.6 km/h 5.6 km/h 30 % 0.0 mm
16:02 17.8 °C 0.0 °C 1015.8 hPa South 6.1 km/h 6.1 km/h 30 % 0.0 mm
16:07 17.3 °C 0.0 °C 1015.8 hPa NNE 9.3 km/h 9.3 km/h 31 % 0.0 mm
16:12 16.2 °C -0.6 °C 1015.8 hPa East 14.8 km/h 14.8 km/h 32 % 0.0 mm
16:17 15.2 °C -1.0 °C 1015.8 hPa ENE 11.1 km/h 12.2 km/h 33 % 0.0 mm
16:22 15.0 °C -1.2 °C 1015.8 hPa East 11.1 km/h 11.1 km/h 33 % 0.0 mm
16:27 14.3 °C -1.8 °C 1016.8 hPa NE 14.8 km/h 14.8 km/h 33 % 0.0 mm
16:32 14.2 °C -1.4 °C 1016.8 hPa ENE 18.5 km/h 18.5 km/h 34 % 0.0 mm
16:37 13.8 °C -1.8 °C 1016.8 hPa East 18.5 km/h 18.5 km/h 34 % 0.0 mm
16:42 13.6 °C -2.0 °C 1016.8 hPa ESE 20.4 km/h 20.4 km/h 34 % 0.0 mm
16:47 13.6 °C -1.6 °C 1016.8 hPa ENE 14.8 km/h 14.8 km/h 35 % 0.0 mm
16:52 13.6 °C -1.6 °C 1016.8 hPa NNE 16.7 km/h 16.7 km/h 35 % 0.0 mm
16:57 13.4 °C -1.8 °C 1016.8 hPa East 11.1 km/h 11.9 km/h 35 % 0.0 mm
17:02 13.4 °C -1.8 °C 1016.8 hPa ESE 16.4 km/h 16.4 km/h 35 % 0.0 mm
17:07 13.2 °C -1.2 °C 1016.8 hPa SSE 11.1 km/h 11.1 km/h 37 % 0.0 mm
17:12 13.2 °C -1.2 °C 1017.8 hPa SE 13.7 km/h 13.7 km/h 37 % 0.0 mm
17:17 13.1 °C -0.9 °C 1017.8 hPa East 16.7 km/h 16.7 km/h 38 % 0.0 mm
17:22 13.0 °C -1.0 °C 1017.8 hPa East 16.9 km/h 16.9 km/h 38 % 0.0 mm
17:27 12.8 °C -0.8 °C 1017.8 hPa ENE 15.1 km/h 15.1 km/h 39 % 0.0 mm
17:32 12.7 °C -1.3 °C 1017.8 hPa ESE 7.9 km/h 11.4 km/h 38 % 0.0 mm
17:47 12.5 °C -1.1 °C 1017.8 hPa ESE 11.4 km/h 11.4 km/h 39 % 0.0 mm
17:52 12.4 °C -0.8 °C 1017.8 hPa East 9.3 km/h 9.3 km/h 40 % 0.0 mm
17:57 12.3 °C -0.9 °C 1017.8 hPa ESE 16.7 km/h 16.7 km/h 40 % 0.0 mm
18:02 12.3 °C -0.9 °C 1017.8 hPa ENE 9.3 km/h 9.3 km/h 40 % 0.0 mm
18:07 12.2 °C -1.0 °C 1017.8 hPa East 9.5 km/h 9.5 km/h 40 % 0.0 mm
18:12 12.1 °C -0.8 °C 1017.8 hPa ESE 9.7 km/h 10.8 km/h 41 % 0.0 mm
18:17 12.0 °C -0.9 °C 1017.8 hPa ESE 11.1 km/h 11.1 km/h 41 % 0.0 mm
18:22 11.9 °C -0.9 °C 1017.8 hPa ENE 9.3 km/h 9.3 km/h 41 % 0.0 mm
18:27 11.8 °C -0.7 °C 1017.8 hPa East 11.1 km/h 11.1 km/h 42 % 0.0 mm
18:32 11.7 °C -0.8 °C 1017.8 hPa ENE 7.4 km/h 7.4 km/h 42 % 0.0 mm
18:37 11.7 °C -0.8 °C 1017.8 hPa East 7.4 km/h 7.4 km/h 42 % 0.0 mm
18:42 11.6 °C -0.9 °C 1018.8 hPa East 9.0 km/h 9.0 km/h 42 % 0.0 mm
18:46 11.5 °C -1.0 °C 1018.8 hPa ENE 9.3 km/h 9.3 km/h 42 % 0.0 mm
18:50 11.4 °C -0.8 °C 1018.8 hPa NE 7.4 km/h 7.4 km/h 43 % 0.0 mm
18:52 11.4 °C -0.8 °C 1018.8 hPa ENE 6.1 km/h 6.1 km/h 43 % 0.0 mm
18:54 11.4 °C -0.8 °C 1018.8 hPa ENE 7.4 km/h 7.4 km/h 43 % 0.0 mm
18:59 11.3 °C -0.8 °C 1018.8 hPa ESE 5.8 km/h 5.8 km/h 43 % 0.0 mm
19:01 11.3 °C -0.8 °C 1018.8 hPa ENE 5.6 km/h 7.6 km/h 43 % 0.0 mm
19:06 11.2 °C -0.6 °C 1018.8 hPa ESE 9.3 km/h 9.3 km/h 44 % 0.0 mm
19:07 11.1 °C -0.7 °C 1018.8 hPa ESE 9.3 km/h 9.3 km/h 44 % 0.0 mm
19:08 11.1 °C -0.7 °C 1018.8 hPa NE 7.4 km/h 7.4 km/h 44 % 0.0 mm
19:09 11.1 °C -0.7 °C 1018.8 hPa ESE 8.7 km/h 8.7 km/h 44 % 0.0 mm
19:14 11.1 °C -0.7 °C 1018.8 hPa East 5.8 km/h 5.8 km/h 44 % 0.0 mm
19:19 10.9 °C -0.6 °C 1018.8 hPa East 7.4 km/h 7.4 km/h 45 % 0.0 mm
19:24 10.9 °C -0.6 °C 1018.8 hPa NE 7.4 km/h 7.4 km/h 45 % 0.0 mm
19:28 10.8 °C -0.7 °C 1019.9 hPa ESE 6.4 km/h 6.4 km/h 45 % 0.0 mm
19:33 10.7 °C -0.8 °C 1019.9 hPa ENE 6.1 km/h 6.1 km/h 45 % 0.0 mm
19:38 10.7 °C -0.4 °C 1019.9 hPa ENE 9.7 km/h 9.7 km/h 46 % 0.0 mm
19:40 10.6 °C -0.6 °C 1019.9 hPa ESE 7.4 km/h 7.4 km/h 46 % 0.0 mm
19:41 10.6 °C -0.6 °C 1019.9 hPa NNE 7.4 km/h 7.4 km/h 46 % 0.0 mm
19:43 10.6 °C -0.6 °C 1019.9 hPa ENE 5.6 km/h 5.6 km/h 46 % 0.0 mm
19:44 10.5 °C -0.7 °C 1019.9 hPa East 5.8 km/h 5.8 km/h 46 % 0.0 mm
19:45 10.5 °C -0.7 °C 1019.9 hPa East 5.6 km/h 5.6 km/h 46 % 0.0 mm
19:47 10.5 °C -0.7 °C 1019.9 hPa East 5.6 km/h 5.8 km/h 46 % 0.0 mm
19:49 10.4 °C -0.7 °C 1019.9 hPa ESE 9.3 km/h 9.3 km/h 46 % 0.0 mm
19:54 10.3 °C -0.6 °C 1019.9 hPa East 5.6 km/h 6.1 km/h 47 % 0.0 mm
19:59 10.3 °C -0.6 °C 1019.9 hPa East 7.4 km/h 7.4 km/h 47 % 0.0 mm
20:04 10.2 °C -0.3 °C 1019.9 hPa East 5.6 km/h 6.1 km/h 48 % 0.0 mm
20:09 10.1 °C -0.2 °C 1019.9 hPa East 7.4 km/h 7.4 km/h 49 % 0.0 mm
20:14 10.1 °C -0.2 °C 1018.8 hPa ENE 3.7 km/h 3.7 km/h 49 % 0.0 mm
20:19 10.0 °C 0.1 °C 1018.8 hPa East 5.3 km/h 5.3 km/h 50 % 0.0 mm
20:24 9.9 °C -0.1 °C 1018.8 hPa East 3.9 km/h 3.9 km/h 50 % 0.0 mm
20:29 9.9 °C -0.1 °C 1018.8 hPa East 3.9 km/h 3.9 km/h 50 % 0.0 mm
20:34 9.9 °C 0.0 °C 1019.9 hPa ENE 3.7 km/h 3.7 km/h 50 % 0.0 mm
20:39 9.7 °C 0.1 °C 1019.9 hPa ESE 3.7 km/h 3.7 km/h 51 % 0.0 mm
20:44 9.6 °C 0.2 °C 1020.9 hPa ENE 2.3 km/h 2.3 km/h 52 % 0.0 mm
20:49 9.6 °C 0.2 °C 1020.9 hPa ENE 3.7 km/h 3.7 km/h 52 % 0.0 mm
20:54 9.6 °C 0.2 °C 1020.9 hPa ENE 2.3 km/h 2.3 km/h 52 % 0.0 mm
21:00 9.6 °C 0.2 °C 1021.9 hPa ENE 1.6 km/h 3.2 km/h 52 % 0.0 mm
21:05 9.6 °C 0.2 °C 1021.9 hPa ENE 1.6 km/h 3.2 km/h 52 % 0.0 mm
21:10 9.4 °C 0.1 °C 1021.9 hPa SW 1.6 km/h 3.2 km/h 52 % 0.0 mm
21:15 9.4 °C 0.3 °C 1020.9 hPa SW 1.6 km/h 3.2 km/h 53 % 0.0 mm
21:20 9.4 °C 0.3 °C 1020.9 hPa ENE 1.6 km/h 3.2 km/h 53 % 0.0 mm
21:25 9.4 °C 0.3 °C 1020.9 hPa Calm   1.6 km/h 53 % 0.0 mm
21:30 9.4 °C 0.3 °C 1020.9 hPa ENE 1.6 km/h 3.2 km/h 53 % 0.0 mm
21:35 9.3 °C 0.2 °C 1020.9 hPa NE 1.6 km/h 3.2 km/h 53 % 0.0 mm
21:40 9.3 °C 0.2 °C 1020.9 hPa NE 3.2 km/h 6.4 km/h 53 % 0.0 mm
21:45 8.6 °C -0.4 °C 1020.9 hPa Calm   6.4 km/h 53 % 0.0 mm
21:50 8.6 °C -0.4 °C 1020.9 hPa Calm     53 % 0.0 mm
22:00 8.4 °C -0.3 °C 1021.9 hPa Calm   1.6 km/h 54 % 0.0 mm
22:05 8.4 °C -0.4 °C 1021.9 hPa Calm   1.6 km/h 54 % 0.0 mm
22:10 8.4 °C -0.4 °C 1021.9 hPa Calm     54 % 0.0 mm
22:20 8.3 °C -0.2 °C 1020.9 hPa Calm     55 % 0.0 mm
22:25 8.3 °C -0.2 °C 1020.9 hPa Calm     55 % 0.0 mm
22:30 8.3 °C -0.2 °C 1021.9 hPa Calm     55 % 0.0 mm
22:35 8.3 °C 0.0 °C 1021.9 hPa Calm     56 % 0.0 mm
22:40 8.2 °C -0.1 °C 1021.9 hPa Calm     56 % 0.0 mm
22:45 8.2 °C -0.1 °C 1021.9 hPa Calm     56 % 0.0 mm
22:50 8.2 °C 0.2 °C 1021.9 hPa Calm     57 % 0.0 mm
22:55 8.2 °C 0.2 °C 1021.9 hPa Calm     57 % 0.0 mm
23:00 8.1 °C 0.1 °C 1021.9 hPa Calm     57 % 0.0 mm
23:05 8.1 °C 0.1 °C 1021.9 hPa Calm   1.6 km/h 57 % 0.0 mm
23:10 8.0 °C 0.2 °C 1021.9 hPa Calm   1.6 km/h 58 % 0.0 mm
23:15 8.0 °C 0.2 °C 1021.9 hPa Calm     58 % 0.0 mm
23:20 8.0 °C 0.4 °C 1021.9 hPa Calm     59 % 0.0 mm
23:25 7.9 °C 0.4 °C 1021.9 hPa Calm     59 % 0.0 mm
23:30 7.8 °C 0.3 °C 1021.9 hPa Calm   1.6 km/h 59 % 0.0 mm
23:35 7.8 °C 0.5 °C 1021.9 hPa Calm   1.6 km/h 60 % 0.0 mm
Meteo Sesrovires
Elogis d' Weather Underground - 3.5 mb

Guio original per  Jim McMurry - jmcmurry@mwt.net Adaptat per a la plantilla per  Wim van der Kuil - Leuven-Template.eu

Trobareu la nostra informacio del temps tambe a:

Weather Underground

AWEKAS